ROMMA est une association bénévole à but non lucratif. Votre soutien est indispensable : ADHERER à ROMMA ou FAIRE un DON

Lans-en-Vercors - (38, Isère)

Vercors (990 m)   Longitude: 5° 33' 59'' E   Latitude: 45° 6' 3'' N Station partenaire n°80
 

Détail journalier du     <<     >>

Température Precipitation Humidité Pression Vent Dir Rafale Dir. rafale Ensol.
Heure (°C) (mm) (%) (hPa) (km/h) (km/h) (min)
01:00 -1.10861013010SO0
02:00 -1.5088101303SO0
03:00 -1.8090101205SO0
04:00 -2.0090101202SO0
05:00 -2.409110121SO6SO0
06:00 -2.6091101106SO0
07:00 -2.6092101202SO10
08:00 -2.3091101200SO10
09:00 -1.008710121SO6OSO0
10:00 1.207610125NNE18NNE30
11:00 3.205910125N16N40
12:00 4.405810115NNE19NNE70
13:00 5.105010118NNO19NNO60
14:00 5.704110118N24N60
15:00 6.405010119NNO24ENE40
16:00 6.3049101110NNE26NNO30
17:00 6.604910119N26N40
18:00 4.604810119N23N20
19:00 2.805910125NNO18NNO0
20:00 0.007110121NE16NNO0
21:00 -1.607910131ONO6NNO0
22:00 -1.8081101306ONO0
23:00 -2.7084101302ONO0
minuit -2.9086101306ONO0

Graphique du 26-03-2020

 

Serveur OMMA